createdAt,value
2023-02-16T00:00:40.853Z,36.33
2023-02-16T00:05:44.395Z,39.27
2023-02-16T00:11:08.376Z,40.53
2023-02-16T00:16:16.477Z,38.00
2023-02-16T00:21:22.199Z,41.97
2023-02-16T00:26:26.972Z,39.57
2023-02-16T00:31:32.945Z,38.27
2023-02-16T00:36:36.283Z,36.07
2023-02-16T00:41:54.617Z,38.30
2023-02-16T00:47:02.292Z,35.17
2023-02-16T00:52:24.191Z,40.80
2023-02-16T00:57:32.001Z,39.20
2023-02-16T01:02:36.751Z,44.63
2023-02-16T01:07:57.322Z,36.87
2023-02-16T01:13:01.452Z,40.73
2023-02-16T01:18:06.322Z,38.93
2023-02-16T01:23:09.620Z,39.63
2023-02-16T01:28:20.392Z,39.23
2023-02-16T01:33:24.928Z,36.27
2023-02-16T01:38:30.326Z,38.87
2023-02-16T01:43:40.951Z,34.53
2023-02-16T01:48:45.476Z,37.97
2023-02-16T01:53:52.519Z,39.97
2023-02-16T01:59:01.691Z,38.20
2023-02-16T02:04:41.263Z,36.70
2023-02-16T02:09:54.576Z,38.53
2023-02-16T02:14:57.813Z,39.33
2023-02-16T02:20:10.148Z,38.30
2023-02-16T02:25:37.770Z,33.37
2023-02-16T02:30:52.258Z,39.27
2023-02-16T02:36:07.935Z,38.87
2023-02-16T02:41:20.869Z,39.17
2023-02-16T02:46:28.407Z,38.83
2023-02-16T02:51:33.893Z,41.43
2023-02-16T02:57:06.277Z,39.40
2023-02-16T03:02:11.714Z,42.47
2023-02-16T03:07:17.274Z,38.40
2023-02-16T03:12:38.183Z,40.77
2023-02-16T03:18:00.550Z,40.20
2023-02-16T03:23:23.117Z,38.70
2023-02-16T03:28:46.310Z,40.03
2023-02-16T03:33:55.165Z,41.53
2023-02-16T03:38:59.493Z,40.50
2023-02-16T03:44:02.581Z,41.20
2023-02-16T03:49:06.981Z,43.63
2023-02-16T03:54:11.336Z,40.90
2023-02-16T03:59:14.271Z,42.07
2023-02-16T04:04:18.695Z,44.73
2023-02-16T04:09:21.790Z,39.83
2023-02-16T04:14:24.791Z,40.90
2023-02-16T04:19:29.326Z,42.30
2023-02-16T04:24:34.790Z,43.87
2023-02-16T04:29:37.854Z,39.93
2023-02-16T04:34:42.271Z,39.97
2023-02-16T04:39:45.508Z,46.13
2023-02-16T04:44:48.664Z,42.97
2023-02-16T04:49:53.072Z,40.73
2023-02-16T04:54:56.056Z,48.67
2023-02-16T04:59:59.033Z,43.00
2023-02-16T05:05:03.318Z,46.00
2023-02-16T05:10:08.039Z,43.20
2023-02-16T05:15:11.156Z,47.53
2023-02-16T05:20:15.774Z,44.20
2023-02-16T05:25:19.015Z,43.23
2023-02-16T05:30:22.200Z,43.87
2023-02-16T05:35:26.531Z,42.80
2023-02-16T05:40:29.568Z,46.90
2023-02-16T05:45:32.646Z,43.93
2023-02-16T05:50:37.073Z,45.90
2023-02-16T05:55:40.053Z,44.10
2023-02-16T06:00:43.628Z,41.43
2023-02-16T06:05:48.003Z,43.93
2023-02-16T06:10:52.165Z,42.50
2023-02-16T06:15:56.856Z,45.10
2023-02-16T06:21:01.218Z,45.93
2023-02-16T06:26:04.431Z,45.40
2023-02-16T06:31:10.113Z,42.43
2023-02-16T06:36:14.728Z,46.37
2023-02-16T06:41:31.403Z,44.43
2023-02-16T06:46:34.740Z,44.50
2023-02-16T06:51:39.227Z,47.67
2023-02-16T06:56:42.376Z,42.53
2023-02-16T07:01:45.696Z,45.43
2023-02-16T07:06:50.174Z,44.10
2023-02-16T07:11:53.218Z,43.30
2023-02-16T07:16:59.095Z,45.10
2023-02-16T07:22:05.489Z,39.43
2023-02-16T07:27:08.729Z,43.17
2023-02-16T07:32:11.868Z,39.70
2023-02-16T07:37:16.270Z,41.47
2023-02-16T07:42:19.293Z,38.87
2023-02-16T07:47:23.976Z,42.03
2023-02-16T07:52:31.182Z,45.07
2023-02-16T07:57:34.589Z,40.10
2023-02-16T08:02:38.059Z,41.40
2023-02-16T08:07:42.824Z,38.30
2023-02-16T08:12:45.902Z,37.47
2023-02-16T08:17:49.435Z,37.07
2023-02-16T08:22:55.094Z,38.57
2023-02-16T08:27:58.073Z,37.23
2023-02-16T08:33:01.957Z,38.90
2023-02-16T08:38:09.085Z,38.47
2023-02-16T08:43:12.176Z,41.87
2023-02-16T08:48:15.329Z,41.37
2023-02-16T08:53:20.147Z,37.53
2023-02-16T08:58:23.727Z,42.97
2023-02-16T09:03:27.070Z,38.93
2023-02-16T09:08:32.959Z,41.43
2023-02-16T09:13:37.995Z,41.47
2023-02-16T09:18:42.136Z,39.87
2023-02-16T09:23:50.086Z,39.63
2023-02-16T09:28:55.087Z,35.13
2023-02-16T09:34:02.772Z,43.67
2023-02-16T09:39:08.153Z,40.97
2023-02-16T09:44:22.141Z,44.70
2023-02-16T09:49:32.639Z,41.37
2023-02-16T09:54:43.938Z,43.57
2023-02-16T09:59:57.772Z,38.83
2023-02-16T10:05:17.605Z,46.87
2023-02-16T10:10:24.601Z,42.13
2023-02-16T10:15:31.034Z,41.43
2023-02-16T10:20:37.382Z,37.57
2023-02-16T10:25:49.534Z,36.93
2023-02-16T10:30:59.585Z,39.43
2023-02-16T10:36:12.010Z,37.40
2023-02-16T10:41:26.210Z,37.33
2023-02-16T10:46:33.797Z,39.10
2023-02-16T10:51:40.515Z,36.00
2023-02-16T10:56:52.482Z,38.70
2023-02-16T11:01:58.400Z,37.23
2023-02-16T11:07:06.778Z,33.00
2023-02-16T11:12:26.908Z,35.63
2023-02-16T11:17:31.778Z,35.13
2023-02-16T11:22:37.073Z,36.33
2023-02-16T11:27:52.440Z,40.60
2023-02-16T11:32:56.113Z,33.20
2023-02-16T11:37:59.151Z,32.30
2023-02-16T11:43:03.927Z,34.77
2023-02-16T11:48:09.856Z,33.53
2023-02-16T11:53:23.587Z,35.83
2023-02-16T11:58:29.423Z,37.17
2023-02-16T12:03:57.204Z,35.67
2023-02-16T12:09:15.214Z,36.00
2023-02-16T12:14:30.548Z,33.53
2023-02-16T12:19:41.769Z,34.17
2023-02-16T12:24:54.606Z,31.40
2023-02-16T12:30:04.300Z,31.43
2023-02-16T12:35:21.870Z,31.13
2023-02-16T12:40:37.946Z,30.83
2023-02-16T12:45:47.346Z,30.50
2023-02-16T12:50:52.790Z,26.80
2023-02-16T12:56:01.043Z,27.30
2023-02-16T13:01:12.164Z,26.37
2023-02-16T13:06:24.265Z,25.67
2023-02-16T13:11:34.012Z,25.57
2023-02-16T13:16:46.214Z,23.33
2023-02-16T13:22:18.549Z,23.40
2023-02-16T13:27:33.532Z,23.37
2023-02-16T13:33:07.138Z,21.10
2023-02-16T13:38:34.289Z,19.17
2023-02-16T13:43:41.094Z,18.67
2023-02-16T13:48:51.180Z,23.47
2023-02-16T13:53:57.490Z,18.60
2023-02-16T13:59:21.795Z,16.10
2023-02-16T14:05:04.145Z,15.43
2023-02-16T14:10:14.763Z,16.30
2023-02-16T14:15:20.816Z,16.30
2023-02-16T14:20:30.506Z,16.03
2023-02-16T14:25:44.127Z,17.33
2023-02-16T14:30:51.847Z,15.53
2023-02-16T14:36:16.701Z,16.60
2023-02-16T14:41:30.674Z,15.80
2023-02-16T14:46:47.946Z,17.10
2023-02-16T14:52:36.016Z,18.93
2023-02-16T14:57:48.508Z,17.07
2023-02-16T15:03:00.077Z,16.50
2023-02-16T15:08:10.702Z,19.20
2023-02-16T15:13:22.112Z,15.40
2023-02-16T15:18:32.240Z,15.87
2023-02-16T15:23:36.623Z,15.43
2023-02-16T15:28:42.198Z,15.63
2023-02-16T15:33:55.197Z,14.80
2023-02-16T15:39:00.452Z,18.13
2023-02-16T15:44:07.658Z,16.27
2023-02-16T15:49:14.321Z,16.33
2023-02-16T15:54:24.547Z,15.93
2023-02-16T15:59:35.818Z,18.03
2023-02-16T16:04:42.145Z,18.03
2023-02-16T16:09:46.566Z,17.07
2023-02-16T16:14:53.230Z,18.73
2023-02-16T16:19:56.600Z,17.53
2023-02-16T16:25:00.356Z,17.87
2023-02-16T16:30:29.956Z,19.17
2023-02-16T16:35:38.534Z,20.03
2023-02-16T16:40:41.740Z,20.10
2023-02-16T16:45:47.840Z,23.57
2023-02-16T16:51:11.108Z,21.07
2023-02-16T16:56:15.204Z,22.00
2023-02-16T17:01:20.639Z,23.93
2023-02-16T17:06:24.864Z,24.90
2023-02-16T17:11:31.705Z,23.43
2023-02-16T17:16:40.748Z,23.67
2023-02-16T17:21:44.092Z,21.77
2023-02-16T17:26:47.363Z,25.07
2023-02-16T17:31:52.008Z,24.97
2023-02-16T17:36:55.298Z,23.73
2023-02-16T17:41:58.546Z,26.50
2023-02-16T17:47:03.021Z,29.40
2023-02-16T17:52:07.334Z,25.37
2023-02-16T17:57:11.515Z,25.43
2023-02-16T18:02:15.864Z,27.57
2023-02-16T18:07:20.055Z,28.10
2023-02-16T18:12:23.049Z,25.00
2023-02-16T18:17:27.489Z,27.30
2023-02-16T18:22:30.570Z,31.83
2023-02-16T18:27:33.548Z,26.40
2023-02-16T18:32:38.623Z,27.80
2023-02-16T18:37:42.641Z,25.40
2023-02-16T18:42:45.862Z,29.63
2023-02-16T18:47:50.582Z,29.33
2023-02-16T18:52:53.601Z,28.03
2023-02-16T18:57:56.629Z,25.90
2023-02-16T19:03:01.125Z,22.77
2023-02-16T19:08:04.512Z,27.43
2023-02-16T19:13:07.635Z,22.97
2023-02-16T19:18:12.015Z,23.47
2023-02-16T19:23:15.150Z,23.80
2023-02-16T19:28:18.386Z,23.43
2023-02-16T19:33:22.822Z,23.60
2023-02-16T19:38:25.889Z,19.80
2023-02-16T19:43:28.926Z,19.57
2023-02-16T19:48:33.651Z,17.83
2023-02-16T19:53:38.618Z,18.47
2023-02-16T19:58:41.703Z,17.30
2023-02-16T20:03:47.270Z,16.33
2023-02-16T20:08:51.536Z,14.73
2023-02-16T20:13:56.030Z,14.53
2023-02-16T20:19:00.613Z,13.33
2023-02-16T20:24:06.257Z,14.13
2023-02-16T20:29:12.862Z,14.67
2023-02-16T20:34:17.514Z,12.97
2023-02-16T20:39:20.637Z,12.57
2023-02-16T20:44:23.871Z,12.33
2023-02-16T20:49:28.239Z,12.53
2023-02-16T20:54:31.519Z,12.03
2023-02-16T20:59:34.590Z,11.30
2023-02-16T21:04:39.043Z,11.13
2023-02-16T21:09:42.638Z,10.40
2023-02-16T21:14:45.829Z,11.17
2023-02-16T21:19:50.709Z,10.30
2023-02-16T21:24:53.834Z,9.27
2023-02-16T21:29:56.918Z,10.13
2023-02-16T21:35:01.434Z,9.83
2023-02-16T21:40:22.626Z,8.37
2023-02-16T21:45:25.943Z,7.70
2023-02-16T21:50:32.292Z,6.37
2023-02-16T21:55:54.930Z,6.50
2023-02-16T22:00:58.018Z,6.80
2023-02-16T22:06:04.557Z,7.57
2023-02-16T22:11:09.794Z,8.37
2023-02-16T22:16:15.511Z,8.30
2023-02-16T22:21:19.921Z,9.30
2023-02-16T22:26:25.367Z,8.57
2023-02-16T22:31:28.774Z,8.97
2023-02-16T22:36:33.893Z,9.70
2023-02-16T22:41:36.945Z,8.97
2023-02-16T22:46:40.045Z,9.60
2023-02-16T22:51:44.544Z,9.40
2023-02-16T22:56:47.985Z,10.30
2023-02-16T23:01:51.122Z,9.37
2023-02-16T23:06:55.532Z,10.93
2023-02-16T23:11:58.638Z,11.20
2023-02-16T23:17:01.571Z,11.97
2023-02-16T23:22:06.015Z,10.43
2023-02-16T23:27:09.001Z,12.13
2023-02-16T23:32:12.050Z,9.80
2023-02-16T23:37:16.464Z,10.10
2023-02-16T23:42:19.520Z,10.40
2023-02-16T23:47:22.882Z,9.93
2023-02-16T23:52:27.369Z,8.93
2023-02-16T23:57:30.435Z,8.70
